Airfield :







YOU CAN JOIN US ON...

 
LOGIN :

Register | Disclaimer

   EN    FR    IT 

 









Legend :    VFR   Marginal VFR   IFR   Intensive IFR   Very Intensive IFR
Visi :
Ceiling :
>= 8 km
>= 3000ft
5 to 8 km
1000 to 3000 ft
1500m to 5 km
500 to 1000 ft
800 to 1500m
200 to 500 ft
< 800m
< 200 ft
Symbols :   Thunderstorms  Fog  Heavy snow  Heavy precipitations  Wind > 20 kt






- Airport Elevation : 266 ft
- IATA code : MHT


KMHT - Manchester

CURRENT METAR :
  • 281253Z 00000KT 7SM -RA FEW060 OVC080 17/14 A2977 RMK AO2 LTG DSNT E RAB38 TSE31 SLP092 P0001 T01720139

EXPIRED METARs :
  • 281247Z 00000KT 10SM -RA OVC085 17/13 A2977 RMK AO2 LTG DSNT E RAB38 TSE31 P0000
  • 281237Z 00000KT 10SM VCTS OVC090 17/13 A2978 RMK AO2 TSE31 T01670133
  • 281153Z 00000KT 10SM OVC110 17/13 A2977 RMK AO2 SLP092 70001 T01670133 10172 20161 51007
  • 281053Z 00000KT 10SM OVC100 17/13 A2977 RMK AO2 SLP092 T01670128

TAF KMHT
Valid from the 28 at 13:00 until the 29 at 12:00 UTC


281240Z 2813/2912 30004KT P6SM -SHRA VCTS BKN090CB
FM281330 30004KT P6SM -SHRA BKN090
FM281500 33005KT P6SM -SHRA BKN025
FM282000 34006KT P6SM SCT040
KZBW FIR / North America



MET'MAP, your aeronautical weather chart ! - Copyright ORBIFLY December 2007 - Disclaimer

ORBIFLY MET'MAP TEAM :

Programming & Development : Alexandra Zaïnal
Concept & original design : Baudouin d'Aumeries
Assistance for programming : Marc-Olivier Méhu
Technical & hardware support : Manuel Goepfert

Contact : metmap@orbifly.com




SOURCES & CREDITS :

   NOAA